sensor_id;sensor_type;location;lat;lon;timestamp;temperature;humidity
59977;DHT22;45837;51.076;3.578;2024-02-28T00:00:37;20.50;54.30
59977;DHT22;45837;51.076;3.578;2024-02-28T00:03:03;20.50;54.30
59977;DHT22;45837;51.076;3.578;2024-02-28T00:05:29;20.50;54.30
59977;DHT22;45837;51.076;3.578;2024-02-28T00:07:55;20.50;54.30
59977;DHT22;45837;51.076;3.578;2024-02-28T00:10:20;20.40;54.30
59977;DHT22;45837;51.076;3.578;2024-02-28T00:12:46;20.40;54.30
59977;DHT22;45837;51.076;3.578;2024-02-28T00:15:12;20.40;54.30
59977;DHT22;45837;51.076;3.578;2024-02-28T00:17:39;20.30;54.40
59977;DHT22;45837;51.076;3.578;2024-02-28T00:20:09;20.30;54.40
59977;DHT22;45837;51.076;3.578;2024-02-28T00:22:36;20.30;54.30
59977;DHT22;45837;51.076;3.578;2024-02-28T00:25:03;20.30;54.30
59977;DHT22;45837;51.076;3.578;2024-02-28T00:27:28;20.30;54.30
59977;DHT22;45837;51.076;3.578;2024-02-28T00:29:54;20.30;54.40
59977;DHT22;45837;51.076;3.578;2024-02-28T00:32:21;20.30;54.20
59977;DHT22;45837;51.076;3.578;2024-02-28T00:34:47;20.30;54.20
59977;DHT22;45837;51.076;3.578;2024-02-28T00:37:12;20.30;54.20
59977;DHT22;45837;51.076;3.578;2024-02-28T00:39:38;20.30;54.20
59977;DHT22;45837;51.076;3.578;2024-02-28T00:42:04;20.30;54.20
59977;DHT22;45837;51.076;3.578;2024-02-28T00:44:30;20.30;54.20
59977;DHT22;45837;51.076;3.578;2024-02-28T00:46:55;20.30;54.20
59977;DHT22;45837;51.076;3.578;2024-02-28T00:49:22;20.20;54.10
59977;DHT22;45837;51.076;3.578;2024-02-28T00:51:47;20.20;54.10
59977;DHT22;45837;51.076;3.578;2024-02-28T00:54:13;20.20;54.20
59977;DHT22;45837;51.076;3.578;2024-02-28T00:56:39;20.20;54.20
59977;DHT22;45837;51.076;3.578;2024-02-28T00:59:05;20.20;54.20
59977;DHT22;45837;51.076;3.578;2024-02-28T01:01:32;20.10;54.10
59977;DHT22;45837;51.076;3.578;2024-02-28T01:03:57;20.20;54.10
59977;DHT22;45837;51.076;3.578;2024-02-28T01:06:23;20.10;54.20
59977;DHT22;45837;51.076;3.578;2024-02-28T01:08:49;20.10;54.20
59977;DHT22;45837;51.076;3.578;2024-02-28T01:11:15;20.10;54.40
59977;DHT22;45837;51.076;3.578;2024-02-28T01:13:41;20.10;54.20
59977;DHT22;45837;51.076;3.578;2024-02-28T01:16:07;20.10;54.20
59977;DHT22;45837;51.076;3.578;2024-02-28T01:18:32;20.10;54.20
59977;DHT22;45837;51.076;3.578;2024-02-28T01:20:58;20.10;54.20
59977;DHT22;45837;51.076;3.578;2024-02-28T01:23:24;20.10;54.30
59977;DHT22;45837;51.076;3.578;2024-02-28T01:25:49;20.00;54.20
59977;DHT22;45837;51.076;3.578;2024-02-28T01:28:15;20.00;54.30
59977;DHT22;45837;51.076;3.578;2024-02-28T01:30:41;20.00;54.20
59977;DHT22;45837;51.076;3.578;2024-02-28T01:33:07;20.00;54.20
59977;DHT22;45837;51.076;3.578;2024-02-28T01:35:32;20.00;54.70
59977;DHT22;45837;51.076;3.578;2024-02-28T01:37:58;20.00;54.10
59977;DHT22;45837;51.076;3.578;2024-02-28T01:40:24;20.00;54.10
59977;DHT22;45837;51.076;3.578;2024-02-28T01:42:49;20.00;54.10
59977;DHT22;45837;51.076;3.578;2024-02-28T01:45:16;20.00;54.10
59977;DHT22;45837;51.076;3.578;2024-02-28T01:47:42;20.00;54.20
59977;DHT22;45837;51.076;3.578;2024-02-28T01:50:09;19.90;54.10
59977;DHT22;45837;51.076;3.578;2024-02-28T01:52:37;19.90;54.10
59977;DHT22;45837;51.076;3.578;2024-02-28T01:55:04;19.90;54.10
59977;DHT22;45837;51.076;3.578;2024-02-28T01:57:32;19.90;54.10
59977;DHT22;45837;51.076;3.578;2024-02-28T01:59:59;19.90;54.10
59977;DHT22;45837;51.076;3.578;2024-02-28T02:02:25;19.90;54.10
59977;DHT22;45837;51.076;3.578;2024-02-28T02:04:51;19.90;54.10
59977;DHT22;45837;51.076;3.578;2024-02-28T02:07:19;19.90;54.10
59977;DHT22;45837;51.076;3.578;2024-02-28T02:09:45;19.90;54.20
59977;DHT22;45837;51.076;3.578;2024-02-28T02:12:12;19.80;54.10
59977;DHT22;45837;51.076;3.578;2024-02-28T02:14:38;19.90;54.20
59977;DHT22;45837;51.076;3.578;2024-02-28T02:17:04;19.80;54.20
59977;DHT22;45837;51.076;3.578;2024-02-28T02:19:29;19.80;54.10
59977;DHT22;45837;51.076;3.578;2024-02-28T02:21:58;19.80;54.10
59977;DHT22;45837;51.076;3.578;2024-02-28T02:24:25;19.80;54.10
59977;DHT22;45837;51.076;3.578;2024-02-28T02:26:57;19.80;54.10
59977;DHT22;45837;51.076;3.578;2024-02-28T02:29:23;19.80;54.10
59977;DHT22;45837;51.076;3.578;2024-02-28T02:31:49;19.70;54.10
59977;DHT22;45837;51.076;3.578;2024-02-28T02:34:15;19.80;54.20
59977;DHT22;45837;51.076;3.578;2024-02-28T02:36:41;19.80;54.20
59977;DHT22;45837;51.076;3.578;2024-02-28T02:39:06;19.80;54.20
59977;DHT22;45837;51.076;3.578;2024-02-28T02:41:34;19.70;54.10
59977;DHT22;45837;51.076;3.578;2024-02-28T02:43:59;19.70;54.10
59977;DHT22;45837;51.076;3.578;2024-02-28T02:46:25;19.70;54.10
59977;DHT22;45837;51.076;3.578;2024-02-28T02:48:51;19.70;54.00
59977;DHT22;45837;51.076;3.578;2024-02-28T02:51:20;19.70;54.10
59977;DHT22;45837;51.076;3.578;2024-02-28T02:53:46;19.70;54.10
59977;DHT22;45837;51.076;3.578;2024-02-28T02:56:12;19.70;54.10
59977;DHT22;45837;51.076;3.578;2024-02-28T02:58:37;19.70;54.10
59977;DHT22;45837;51.076;3.578;2024-02-28T03:01:03;19.70;54.10
59977;DHT22;45837;51.076;3.578;2024-02-28T03:03:29;19.70;54.10
59977;DHT22;45837;51.076;3.578;2024-02-28T03:05:55;19.70;54.10
59977;DHT22;45837;51.076;3.578;2024-02-28T03:08:20;19.60;54.10
59977;DHT22;45837;51.076;3.578;2024-02-28T03:10:46;19.60;54.10
59977;DHT22;45837;51.076;3.578;2024-02-28T03:13:12;19.60;54.10
59977;DHT22;45837;51.076;3.578;2024-02-28T03:15:38;19.60;54.10
59977;DHT22;45837;51.076;3.578;2024-02-28T03:18:04;19.60;54.00
59977;DHT22;45837;51.076;3.578;2024-02-28T03:20:30;19.60;54.10
59977;DHT22;45837;51.076;3.578;2024-02-28T03:22:55;19.60;54.10
59977;DHT22;45837;51.076;3.578;2024-02-28T03:25:21;19.60;54.10
59977;DHT22;45837;51.076;3.578;2024-02-28T03:27:47;19.60;54.10
59977;DHT22;45837;51.076;3.578;2024-02-28T03:30:12;19.60;54.10
59977;DHT22;45837;51.076;3.578;2024-02-28T03:32:38;19.50;54.10
59977;DHT22;45837;51.076;3.578;2024-02-28T03:35:04;19.50;54.10
59977;DHT22;45837;51.076;3.578;2024-02-28T03:37:31;19.50;54.00
59977;DHT22;45837;51.076;3.578;2024-02-28T03:39:57;19.50;54.10
59977;DHT22;45837;51.076;3.578;2024-02-28T03:42:22;19.50;54.10
59977;DHT22;45837;51.076;3.578;2024-02-28T03:44:48;19.50;54.10
59977;DHT22;45837;51.076;3.578;2024-02-28T03:47:14;19.50;54.10
59977;DHT22;45837;51.076;3.578;2024-02-28T03:49:40;19.50;54.10
59977;DHT22;45837;51.076;3.578;2024-02-28T03:52:05;19.50;54.10
59977;DHT22;45837;51.076;3.578;2024-02-28T03:54:31;19.40;54.00
59977;DHT22;45837;51.076;3.578;2024-02-28T03:56:57;19.50;54.10
59977;DHT22;45837;51.076;3.578;2024-02-28T03:59:24;19.40;54.00
59977;DHT22;45837;51.076;3.578;2024-02-28T04:01:50;19.50;54.10
59977;DHT22;45837;51.076;3.578;2024-02-28T04:04:15;19.40;54.10
59977;DHT22;45837;51.076;3.578;2024-02-28T04:06:41;19.40;54.10
59977;DHT22;45837;51.076;3.578;2024-02-28T04:09:07;19.40;54.10
59977;DHT22;45837;51.076;3.578;2024-02-28T04:11:33;19.40;54.10
59977;DHT22;45837;51.076;3.578;2024-02-28T04:13:59;19.40;54.00
59977;DHT22;45837;51.076;3.578;2024-02-28T04:16:25;19.40;54.10
59977;DHT22;45837;51.076;3.578;2024-02-28T04:18:51;19.40;54.00
59977;DHT22;45837;51.076;3.578;2024-02-28T04:21:16;19.40;54.00
59977;DHT22;45837;51.076;3.578;2024-02-28T04:23:42;19.40;54.10
59977;DHT22;45837;51.076;3.578;2024-02-28T04:26:09;19.40;54.10
59977;DHT22;45837;51.076;3.578;2024-02-28T04:28:35;19.40;54.10
59977;DHT22;45837;51.076;3.578;2024-02-28T04:31:01;19.40;54.10
59977;DHT22;45837;51.076;3.578;2024-02-28T04:33:26;19.40;54.10
59977;DHT22;45837;51.076;3.578;2024-02-28T04:35:52;19.40;54.00
59977;DHT22;45837;51.076;3.578;2024-02-28T04:38:18;19.30;54.00
59977;DHT22;45837;51.076;3.578;2024-02-28T04:40:44;19.30;54.10
59977;DHT22;45837;51.076;3.578;2024-02-28T04:43:10;19.30;54.00
59977;DHT22;45837;51.076;3.578;2024-02-28T04:45:36;19.30;54.00
59977;DHT22;45837;51.076;3.578;2024-02-28T04:48:01;19.30;54.10
59977;DHT22;45837;51.076;3.578;2024-02-28T04:50:27;19.30;54.30
59977;DHT22;45837;51.076;3.578;2024-02-28T04:52:53;19.30;54.00
59977;DHT22;45837;51.076;3.578;2024-02-28T04:55:18;19.30;54.00
59977;DHT22;45837;51.076;3.578;2024-02-28T04:57:44;19.30;54.00
59977;DHT22;45837;51.076;3.578;2024-02-28T05:00:10;19.30;54.00
59977;DHT22;45837;51.076;3.578;2024-02-28T05:02:36;19.30;54.00
59977;DHT22;45837;51.076;3.578;2024-02-28T05:05:02;19.30;54.00
59977;DHT22;45837;51.076;3.578;2024-02-28T05:07:28;19.30;54.00
59977;DHT22;45837;51.076;3.578;2024-02-28T05:09:54;19.30;54.00
59977;DHT22;45837;51.076;3.578;2024-02-28T05:12:19;19.30;54.00
59977;DHT22;45837;51.076;3.578;2024-02-28T05:14:45;19.30;54.00
59977;DHT22;45837;51.076;3.578;2024-02-28T05:17:11;19.30;53.90
59977;DHT22;45837;51.076;3.578;2024-02-28T05:19:37;19.30;54.00
59977;DHT22;45837;51.076;3.578;2024-02-28T05:22:02;19.30;54.10
59977;DHT22;45837;51.076;3.578;2024-02-28T05:24:28;19.20;54.20
59977;DHT22;45837;51.076;3.578;2024-02-28T05:26:54;19.30;54.80
59977;DHT22;45837;51.076;3.578;2024-02-28T05:29:20;19.20;54.90
59977;DHT22;45837;51.076;3.578;2024-02-28T05:31:45;19.30;55.10
59977;DHT22;45837;51.076;3.578;2024-02-28T05:34:11;19.30;55.30
59977;DHT22;45837;51.076;3.578;2024-02-28T05:36:37;19.30;55.40
59977;DHT22;45837;51.076;3.578;2024-02-28T05:39:03;19.30;55.40
59977;DHT22;45837;51.076;3.578;2024-02-28T05:41:31;19.40;55.40
59977;DHT22;45837;51.076;3.578;2024-02-28T05:43:57;19.40;55.30
59977;DHT22;45837;51.076;3.578;2024-02-28T05:46:22;19.40;55.40
59977;DHT22;45837;51.076;3.578;2024-02-28T05:48:49;19.50;55.20
59977;DHT22;45837;51.076;3.578;2024-02-28T05:51:18;19.50;55.00
59977;DHT22;45837;51.076;3.578;2024-02-28T05:53:43;19.60;54.30
59977;DHT22;45837;51.076;3.578;2024-02-28T05:56:10;19.60;53.70
59977;DHT22;45837;51.076;3.578;2024-02-28T05:58:43;19.70;53.10
59977;DHT22;45837;51.076;3.578;2024-02-28T06:01:10;19.80;52.70
59977;DHT22;45837;51.076;3.578;2024-02-28T06:03:37;19.90;52.80
59977;DHT22;45837;51.076;3.578;2024-02-28T06:06:03;19.90;53.00
59977;DHT22;45837;51.076;3.578;2024-02-28T06:08:34;20.00;53.00
59977;DHT22;45837;51.076;3.578;2024-02-28T06:11:01;20.10;53.10
59977;DHT22;45837;51.076;3.578;2024-02-28T06:13:29;20.20;53.20
59977;DHT22;45837;51.076;3.578;2024-02-28T06:15:56;20.20;53.30
59977;DHT22;45837;51.076;3.578;2024-02-28T06:18:22;20.30;53.30
59977;DHT22;45837;51.076;3.578;2024-02-28T06:20:48;20.40;53.10
59977;DHT22;45837;51.076;3.578;2024-02-28T06:23:15;20.40;52.90
59977;DHT22;45837;51.076;3.578;2024-02-28T06:25:40;20.50;53.50
59977;DHT22;45837;51.076;3.578;2024-02-28T06:28:06;20.60;53.00
59977;DHT22;45837;51.076;3.578;2024-02-28T06:30:33;20.60;53.10
59977;DHT22;45837;51.076;3.578;2024-02-28T06:32:59;20.70;53.10
59977;DHT22;45837;51.076;3.578;2024-02-28T06:35:26;20.70;53.20
59977;DHT22;45837;51.076;3.578;2024-02-28T06:37:51;20.80;53.30
59977;DHT22;45837;51.076;3.578;2024-02-28T06:40:17;20.80;53.30
59977;DHT22;45837;51.076;3.578;2024-02-28T06:42:44;20.80;53.30
59977;DHT22;45837;51.076;3.578;2024-02-28T06:45:09;20.80;53.30
59977;DHT22;45837;51.076;3.578;2024-02-28T06:47:35;20.90;53.40
59977;DHT22;45837;51.076;3.578;2024-02-28T06:50:06;20.80;53.40
59977;DHT22;45837;51.076;3.578;2024-02-28T06:52:33;20.80;53.40
59977;DHT22;45837;51.076;3.578;2024-02-28T06:55:00;20.80;53.20
59977;DHT22;45837;51.076;3.578;2024-02-28T06:57:29;20.80;53.10
59977;DHT22;45837;51.076;3.578;2024-02-28T06:59:54;20.80;53.00
59977;DHT22;45837;51.076;3.578;2024-02-28T07:02:20;20.80;52.80
59977;DHT22;45837;51.076;3.578;2024-02-28T07:04:46;20.70;52.60
59977;DHT22;45837;51.076;3.578;2024-02-28T07:07:12;20.70;52.50
59977;DHT22;45837;51.076;3.578;2024-02-28T07:09:38;20.70;52.30
59977;DHT22;45837;51.076;3.578;2024-02-28T07:12:06;20.70;52.10
59977;DHT22;45837;51.076;3.578;2024-02-28T07:14:32;20.70;52.00
59977;DHT22;45837;51.076;3.578;2024-02-28T07:16:57;20.70;51.90
59977;DHT22;45837;51.076;3.578;2024-02-28T07:19:23;20.60;51.70
59977;DHT22;45837;51.076;3.578;2024-02-28T07:21:49;20.60;51.70
59977;DHT22;45837;51.076;3.578;2024-02-28T07:24:14;20.60;51.70
59977;DHT22;45837;51.076;3.578;2024-02-28T07:26:41;20.50;51.50
59977;DHT22;45837;51.076;3.578;2024-02-28T07:29:07;20.50;51.50
59977;DHT22;45837;51.076;3.578;2024-02-28T07:31:33;20.50;51.20
59977;DHT22;45837;51.076;3.578;2024-02-28T07:33:59;20.50;51.20
59977;DHT22;45837;51.076;3.578;2024-02-28T07:36:24;20.50;51.10
59977;DHT22;45837;51.076;3.578;2024-02-28T07:38:50;20.50;51.10
59977;DHT22;45837;51.076;3.578;2024-02-28T07:41:18;20.40;51.10
59977;DHT22;45837;51.076;3.578;2024-02-28T07:43:43;20.40;50.80
59977;DHT22;45837;51.076;3.578;2024-02-28T07:46:10;20.40;50.20
59977;DHT22;45837;51.076;3.578;2024-02-28T07:48:37;20.30;50.40
59977;DHT22;45837;51.076;3.578;2024-02-28T07:51:09;20.30;50.50
59977;DHT22;45837;51.076;3.578;2024-02-28T07:53:35;20.30;50.50
59977;DHT22;45837;51.076;3.578;2024-02-28T07:56:01;20.30;50.60
59977;DHT22;45837;51.076;3.578;2024-02-28T07:58:27;20.30;50.50
59977;DHT22;45837;51.076;3.578;2024-02-28T08:00:53;20.20;50.50
59977;DHT22;45837;51.076;3.578;2024-02-28T08:03:19;20.20;50.50
59977;DHT22;45837;51.076;3.578;2024-02-28T08:05:45;20.20;50.50
59977;DHT22;45837;51.076;3.578;2024-02-28T08:08:11;20.10;50.50
59977;DHT22;45837;51.076;3.578;2024-02-28T08:10:37;20.20;50.50
59977;DHT22;45837;51.076;3.578;2024-02-28T08:13:06;20.10;50.40
59977;DHT22;45837;51.076;3.578;2024-02-28T08:15:33;20.20;50.40
59977;DHT22;45837;51.076;3.578;2024-02-28T08:17:59;20.10;50.40
59977;DHT22;45837;51.076;3.578;2024-02-28T08:20:24;20.10;50.40
59977;DHT22;45837;51.076;3.578;2024-02-28T08:22:50;20.10;50.40
59977;DHT22;45837;51.076;3.578;2024-02-28T08:25:18;20.10;50.40
59977;DHT22;45837;51.076;3.578;2024-02-28T08:27:44;20.10;50.40
59977;DHT22;45837;51.076;3.578;2024-02-28T08:30:10;20.00;50.40
59977;DHT22;45837;51.076;3.578;2024-02-28T08:32:36;20.00;50.40
59977;DHT22;45837;51.076;3.578;2024-02-28T08:35:02;20.00;50.40
59977;DHT22;45837;51.076;3.578;2024-02-28T08:37:27;20.00;50.30
59977;DHT22;45837;51.076;3.578;2024-02-28T08:39:55;19.90;50.30
59977;DHT22;45837;51.076;3.578;2024-02-28T08:42:26;19.90;50.50
59977;DHT22;45837;51.076;3.578;2024-02-28T08:44:53;19.90;50.70
59977;DHT22;45837;51.076;3.578;2024-02-28T08:47:23;19.90;50.50
59977;DHT22;45837;51.076;3.578;2024-02-28T08:49:49;19.90;50.60
59977;DHT22;45837;51.076;3.578;2024-02-28T08:52:15;19.90;50.60
59977;DHT22;45837;51.076;3.578;2024-02-28T08:54:40;19.90;50.60
59977;DHT22;45837;51.076;3.578;2024-02-28T08:57:06;19.90;49.00
59977;DHT22;45837;51.076;3.578;2024-02-28T08:59:33;19.80;48.00
59977;DHT22;45837;51.076;3.578;2024-02-28T09:01:58;19.80;48.80
59977;DHT22;45837;51.076;3.578;2024-02-28T09:04:24;19.80;49.10
59977;DHT22;45837;51.076;3.578;2024-02-28T09:06:50;19.70;49.40
59977;DHT22;45837;51.076;3.578;2024-02-28T09:09:19;19.70;49.50
59977;DHT22;45837;51.076;3.578;2024-02-28T09:11:44;19.70;49.70
59977;DHT22;45837;51.076;3.578;2024-02-28T09:14:10;19.70;50.00
59977;DHT22;45837;51.076;3.578;2024-02-28T09:16:36;19.70;50.10
59977;DHT22;45837;51.076;3.578;2024-02-28T09:19:03;19.80;50.30
59977;DHT22;45837;51.076;3.578;2024-02-28T09:21:29;19.80;50.50
59977;DHT22;45837;51.076;3.578;2024-02-28T09:23:55;19.80;50.50
59977;DHT22;45837;51.076;3.578;2024-02-28T09:26:21;19.90;50.90
59977;DHT22;45837;51.076;3.578;2024-02-28T09:28:46;20.00;51.50
59977;DHT22;45837;51.076;3.578;2024-02-28T09:31:12;20.00;51.60
59977;DHT22;45837;51.076;3.578;2024-02-28T09:33:40;20.10;51.80
59977;DHT22;45837;51.076;3.578;2024-02-28T09:36:06;20.20;51.90
59977;DHT22;45837;51.076;3.578;2024-02-28T09:38:32;20.30;51.90
59977;DHT22;45837;51.076;3.578;2024-02-28T09:41:03;20.40;51.90
59977;DHT22;45837;51.076;3.578;2024-02-28T09:43:35;20.60;51.90
59977;DHT22;45837;51.076;3.578;2024-02-28T09:46:05;20.70;51.90
59977;DHT22;45837;51.076;3.578;2024-02-28T09:48:33;20.70;51.80
59977;DHT22;45837;51.076;3.578;2024-02-28T09:51:00;20.80;51.80
59977;DHT22;45837;51.076;3.578;2024-02-28T09:53:26;20.90;52.50
59977;DHT22;45837;51.076;3.578;2024-02-28T09:55:52;20.90;51.90
59977;DHT22;45837;51.076;3.578;2024-02-28T09:58:19;20.90;51.90
59977;DHT22;45837;51.076;3.578;2024-02-28T10:00:48;21.00;52.00
59977;DHT22;45837;51.076;3.578;2024-02-28T10:03:18;21.10;51.90
59977;DHT22;45837;51.076;3.578;2024-02-28T10:05:48;21.00;51.90
59977;DHT22;45837;51.076;3.578;2024-02-28T10:08:14;21.10;52.20
59977;DHT22;45837;51.076;3.578;2024-02-28T10:10:47;21.10;52.30
59977;DHT22;45837;51.076;3.578;2024-02-28T10:13:15;21.00;52.20
59977;DHT22;45837;51.076;3.578;2024-02-28T10:15:41;21.10;53.00
59977;DHT22;45837;51.076;3.578;2024-02-28T10:18:07;21.10;52.40
59977;DHT22;45837;51.076;3.578;2024-02-28T10:20:33;21.10;52.40
59977;DHT22;45837;51.076;3.578;2024-02-28T10:22:59;21.10;52.40
59977;DHT22;45837;51.076;3.578;2024-02-28T10:25:25;21.10;52.40
59977;DHT22;45837;51.076;3.578;2024-02-28T10:27:52;21.10;52.50
59977;DHT22;45837;51.076;3.578;2024-02-28T10:30:19;21.20;52.60
59977;DHT22;45837;51.076;3.578;2024-02-28T10:32:50;21.20;52.60
59977;DHT22;45837;51.076;3.578;2024-02-28T10:35:19;21.20;52.80
59977;DHT22;45837;51.076;3.578;2024-02-28T10:37:47;21.20;52.90
59977;DHT22;45837;51.076;3.578;2024-02-28T10:40:16;21.20;52.90
59977;DHT22;45837;51.076;3.578;2024-02-28T10:42:42;21.20;52.80
59977;DHT22;45837;51.076;3.578;2024-02-28T10:45:10;21.20;52.90
59977;DHT22;45837;51.076;3.578;2024-02-28T10:47:39;21.20;52.00
59977;DHT22;45837;51.076;3.578;2024-02-28T10:50:05;21.20;51.70
59977;DHT22;45837;51.076;3.578;2024-02-28T10:52:41;21.20;51.50
59977;DHT22;45837;51.076;3.578;2024-02-28T10:55:08;21.20;51.50
59977;DHT22;45837;51.076;3.578;2024-02-28T10:57:36;21.10;51.50
59977;DHT22;45837;51.076;3.578;2024-02-28T11:00:03;21.20;51.40
59977;DHT22;45837;51.076;3.578;2024-02-28T11:02:31;21.10;51.10
59977;DHT22;45837;51.076;3.578;2024-02-28T11:04:58;21.10;51.10
59977;DHT22;45837;51.076;3.578;2024-02-28T11:07:26;21.10;51.10
59977;DHT22;45837;51.076;3.578;2024-02-28T11:09:55;21.10;50.90
59977;DHT22;45837;51.076;3.578;2024-02-28T11:12:28;21.00;50.80
59977;DHT22;45837;51.076;3.578;2024-02-28T11:15:02;21.00;50.80
59977;DHT22;45837;51.076;3.578;2024-02-28T11:17:29;21.00;50.80
59977;DHT22;45837;51.076;3.578;2024-02-28T11:19:55;21.00;50.70
59977;DHT22;45837;51.076;3.578;2024-02-28T11:22:21;20.90;50.70
59977;DHT22;45837;51.076;3.578;2024-02-28T11:24:47;20.90;50.60
59977;DHT22;45837;51.076;3.578;2024-02-28T11:27:15;20.90;50.50
59977;DHT22;45837;51.076;3.578;2024-02-28T11:29:42;20.90;50.50
59977;DHT22;45837;51.076;3.578;2024-02-28T11:32:08;20.90;50.50
59977;DHT22;45837;51.076;3.578;2024-02-28T11:34:35;20.90;50.50
59977;DHT22;45837;51.076;3.578;2024-02-28T11:37:03;20.80;50.50
59977;DHT22;45837;51.076;3.578;2024-02-28T11:39:29;20.80;50.40
59977;DHT22;45837;51.076;3.578;2024-02-28T11:42:09;20.80;50.20
59977;DHT22;45837;51.076;3.578;2024-02-28T11:44:35;20.80;50.40
59977;DHT22;45837;51.076;3.578;2024-02-28T11:47:01;20.80;50.80
59977;DHT22;45837;51.076;3.578;2024-02-28T11:49:28;20.80;51.10
59977;DHT22;45837;51.076;3.578;2024-02-28T11:51:53;20.80;51.30
59977;DHT22;45837;51.076;3.578;2024-02-28T11:54:19;20.80;51.50
59977;DHT22;45837;51.076;3.578;2024-02-28T11:56:45;20.80;51.50
59977;DHT22;45837;51.076;3.578;2024-02-28T11:59:11;20.70;51.50
59977;DHT22;45837;51.076;3.578;2024-02-28T12:01:41;20.80;51.60
59977;DHT22;45837;51.076;3.578;2024-02-28T12:04:09;20.70;51.50
59977;DHT22;45837;51.076;3.578;2024-02-28T12:06:37;20.70;51.80
59977;DHT22;45837;51.076;3.578;2024-02-28T12:09:04;20.70;51.80
59977;DHT22;45837;51.076;3.578;2024-02-28T12:11:32;20.60;52.20
59977;DHT22;45837;51.076;3.578;2024-02-28T12:13:58;20.70;52.20
59977;DHT22;45837;51.076;3.578;2024-02-28T12:16:25;20.70;52.20
59977;DHT22;45837;51.076;3.578;2024-02-28T12:18:52;20.60;52.20
59977;DHT22;45837;51.076;3.578;2024-02-28T12:21:18;20.60;52.30
59977;DHT22;45837;51.076;3.578;2024-02-28T12:23:45;20.50;52.40
59977;DHT22;45837;51.076;3.578;2024-02-28T12:26:11;20.50;52.60
59977;DHT22;45837;51.076;3.578;2024-02-28T12:28:37;20.50;53.20
59977;DHT22;45837;51.076;3.578;2024-02-28T12:31:03;20.50;53.60
59977;DHT22;45837;51.076;3.578;2024-02-28T12:33:30;20.50;53.50
59977;DHT22;45837;51.076;3.578;2024-02-28T12:35:56;20.60;53.60
59977;DHT22;45837;51.076;3.578;2024-02-28T12:38:22;20.60;53.50
59977;DHT22;45837;51.076;3.578;2024-02-28T12:40:48;20.60;53.40
59977;DHT22;45837;51.076;3.578;2024-02-28T12:43:14;20.70;53.30
59977;DHT22;45837;51.076;3.578;2024-02-28T12:45:39;20.70;53.40
59977;DHT22;45837;51.076;3.578;2024-02-28T12:48:05;20.80;53.60
59977;DHT22;45837;51.076;3.578;2024-02-28T12:50:31;20.80;53.60
59977;DHT22;45837;51.076;3.578;2024-02-28T12:52:59;20.90;53.50
59977;DHT22;45837;51.076;3.578;2024-02-28T12:55:25;20.90;53.50
59977;DHT22;45837;51.076;3.578;2024-02-28T12:57:51;20.90;53.60
59977;DHT22;45837;51.076;3.578;2024-02-28T13:00:17;21.00;53.60
59977;DHT22;45837;51.076;3.578;2024-02-28T13:02:44;21.00;53.40
59977;DHT22;45837;51.076;3.578;2024-02-28T13:05:11;21.00;53.40
59977;DHT22;45837;51.076;3.578;2024-02-28T13:07:38;21.10;53.40
59977;DHT22;45837;51.076;3.578;2024-02-28T13:10:05;21.10;53.50
59977;DHT22;45837;51.076;3.578;2024-02-28T13:12:32;21.10;53.50
59977;DHT22;45837;51.076;3.578;2024-02-28T13:14:58;21.10;53.60
59977;DHT22;45837;51.076;3.578;2024-02-28T13:17:24;21.10;53.70
59977;DHT22;45837;51.076;3.578;2024-02-28T13:19:51;21.10;53.70
59977;DHT22;45837;51.076;3.578;2024-02-28T13:22:17;21.10;53.90
59977;DHT22;45837;51.076;3.578;2024-02-28T13:24:43;21.10;53.90
59977;DHT22;45837;51.076;3.578;2024-02-28T13:27:08;21.10;53.90
59977;DHT22;45837;51.076;3.578;2024-02-28T13:29:37;21.20;53.90
59977;DHT22;45837;51.076;3.578;2024-02-28T13:32:03;21.20;54.00
59977;DHT22;45837;51.076;3.578;2024-02-28T13:34:29;21.20;54.00
59977;DHT22;45837;51.076;3.578;2024-02-28T13:36:57;21.20;54.30
59977;DHT22;45837;51.076;3.578;2024-02-28T13:39:22;21.20;54.30
59977;DHT22;45837;51.076;3.578;2024-02-28T13:41:49;21.10;54.40
59977;DHT22;45837;51.076;3.578;2024-02-28T13:44:19;21.10;54.60
59977;DHT22;45837;51.076;3.578;2024-02-28T13:46:45;21.10;54.80
59977;DHT22;45837;51.076;3.578;2024-02-28T13:49:13;21.10;55.10
59977;DHT22;45837;51.076;3.578;2024-02-28T13:51:39;21.20;55.20
59977;DHT22;45837;51.076;3.578;2024-02-28T13:54:08;21.20;55.20
59977;DHT22;45837;51.076;3.578;2024-02-28T13:56:33;21.20;55.20
59977;DHT22;45837;51.076;3.578;2024-02-28T13:58:59;21.20;55.30
59977;DHT22;45837;51.076;3.578;2024-02-28T14:01:25;21.20;55.20
59977;DHT22;45837;51.076;3.578;2024-02-28T14:03:51;21.20;55.20
59977;DHT22;45837;51.076;3.578;2024-02-28T14:06:17;21.20;55.10
59977;DHT22;45837;51.076;3.578;2024-02-28T14:08:43;21.30;55.10
59977;DHT22;45837;51.076;3.578;2024-02-28T14:11:09;21.30;55.10
59977;DHT22;45837;51.076;3.578;2024-02-28T14:13:34;21.20;55.20
59977;DHT22;45837;51.076;3.578;2024-02-28T14:16:00;21.30;55.30
59977;DHT22;45837;51.076;3.578;2024-02-28T14:18:27;21.20;55.40
59977;DHT22;45837;51.076;3.578;2024-02-28T14:20:52;21.20;55.40
59977;DHT22;45837;51.076;3.578;2024-02-28T14:23:18;21.20;54.90
59977;DHT22;45837;51.076;3.578;2024-02-28T14:25:44;21.20;54.80
59977;DHT22;45837;51.076;3.578;2024-02-28T14:28:10;21.10;54.10
59977;DHT22;45837;51.076;3.578;2024-02-28T14:30:35;21.20;53.50
59977;DHT22;45837;51.076;3.578;2024-02-28T14:33:01;21.10;53.40
59977;DHT22;45837;51.076;3.578;2024-02-28T14:35:27;21.10;53.40
59977;DHT22;45837;51.076;3.578;2024-02-28T14:37:53;21.10;53.40
59977;DHT22;45837;51.076;3.578;2024-02-28T14:40:20;21.20;53.30
59977;DHT22;45837;51.076;3.578;2024-02-28T14:42:45;21.20;53.20
59977;DHT22;45837;51.076;3.578;2024-02-28T14:45:12;21.10;53.00
59977;DHT22;45837;51.076;3.578;2024-02-28T14:47:42;21.10;52.90
59977;DHT22;45837;51.076;3.578;2024-02-28T14:50:08;21.10;52.80
59977;DHT22;45837;51.076;3.578;2024-02-28T14:52:38;21.10;52.80
59977;DHT22;45837;51.076;3.578;2024-02-28T14:55:05;21.00;52.70
59977;DHT22;45837;51.076;3.578;2024-02-28T14:57:31;21.00;52.70
59977;DHT22;45837;51.076;3.578;2024-02-28T14:59:57;21.00;52.70
59977;DHT22;45837;51.076;3.578;2024-02-28T15:02:23;21.00;52.50
59977;DHT22;45837;51.076;3.578;2024-02-28T15:04:49;20.90;52.60
59977;DHT22;45837;51.076;3.578;2024-02-28T15:07:16;20.90;52.40
59977;DHT22;45837;51.076;3.578;2024-02-28T15:09:41;20.90;52.40
59977;DHT22;45837;51.076;3.578;2024-02-28T15:12:08;20.90;52.30
59977;DHT22;45837;51.076;3.578;2024-02-28T15:14:34;20.90;52.20
59977;DHT22;45837;51.076;3.578;2024-02-28T15:17:00;20.90;52.10
59977;DHT22;45837;51.076;3.578;2024-02-28T15:19:25;20.90;51.90
59977;DHT22;45837;51.076;3.578;2024-02-28T15:21:56;20.90;51.80
59977;DHT22;45837;51.076;3.578;2024-02-28T15:24:22;20.90;51.90